sensor_id;sensor_type;location;lat;lon;timestamp;pressure;altitude;pressure_sealevel;temperature;humidity
64713;BME280;51140;45.340;5.980;2023-05-23T00:01:40;98107.03;;;16.92;70.00
64713;BME280;51140;45.340;5.980;2023-05-23T00:04:07;98102.28;;;16.89;69.75
64713;BME280;51140;45.340;5.980;2023-05-23T00:06:33;98101.88;;;17.04;69.21
64713;BME280;51140;45.340;5.980;2023-05-23T00:09:00;98102.63;;;16.96;71.39
64713;BME280;51140;45.340;5.980;2023-05-23T00:11:25;98111.28;;;16.93;71.82
64713;BME280;51140;45.340;5.980;2023-05-23T00:13:54;98106.78;;;16.80;73.15
64713;BME280;51140;45.340;5.980;2023-05-23T00:16:21;98106.34;;;16.64;73.62
64713;BME280;51140;45.340;5.980;2023-05-23T00:18:47;98107.56;;;16.58;72.40
64713;BME280;51140;45.340;5.980;2023-05-23T00:21:14;98115.53;;;16.49;72.28
64713;BME280;51140;45.340;5.980;2023-05-23T00:23:40;98116.47;;;16.31;73.45
64713;BME280;51140;45.340;5.980;2023-05-23T00:26:09;98112.69;;;16.32;72.51
64713;BME280;51140;45.340;5.980;2023-05-23T00:28:36;98114.53;;;16.45;72.82
64713;BME280;51140;45.340;5.980;2023-05-23T00:31:02;98120.81;;;16.41;73.24
64713;BME280;51140;45.340;5.980;2023-05-23T00:33:28;98119.38;;;16.57;73.58
64713;BME280;51140;45.340;5.980;2023-05-23T00:35:54;98109.34;;;16.63;73.35
64713;BME280;51140;45.340;5.980;2023-05-23T00:38:19;98107.56;;;16.44;74.15
64713;BME280;51140;45.340;5.980;2023-05-23T00:40:45;98111.53;;;16.61;72.83
64713;BME280;51140;45.340;5.980;2023-05-23T00:43:10;98111.06;;;16.81;73.58
64713;BME280;51140;45.340;5.980;2023-05-23T00:45:36;98114.09;;;16.66;73.58
64713;BME280;51140;45.340;5.980;2023-05-23T00:48:02;98111.47;;;16.74;73.05
64713;BME280;51140;45.340;5.980;2023-05-23T00:50:28;98099.78;;;16.70;72.66
64713;BME280;51140;45.340;5.980;2023-05-23T00:52:55;98107.28;;;16.82;70.34
64713;BME280;51140;45.340;5.980;2023-05-23T00:55:22;98109.72;;;16.92;70.39
64713;BME280;51140;45.340;5.980;2023-05-23T00:57:48;98111.41;;;16.88;69.41
64713;BME280;51140;45.340;5.980;2023-05-23T01:00:14;98118.91;;;16.99;69.14
64713;BME280;51140;45.340;5.980;2023-05-23T01:02:44;98111.06;;;16.81;71.00
64713;BME280;51140;45.340;5.980;2023-05-23T01:05:13;98114.78;;;16.71;71.94
64713;BME280;51140;45.340;5.980;2023-05-23T01:07:44;98111.69;;;16.78;72.25
64713;BME280;51140;45.340;5.980;2023-05-23T01:10:14;98110.00;;;16.90;70.91
64713;BME280;51140;45.340;5.980;2023-05-23T01:12:57;98110.72;;;17.04;71.14
64713;BME280;51140;45.340;5.980;2023-05-23T01:16:00;98110.13;;;16.85;70.64
64713;BME280;51140;45.340;5.980;2023-05-23T01:21:23;98117.31;;;16.54;72.74
64713;BME280;51140;45.340;5.980;2023-05-23T01:26:32;98103.00;;;16.23;73.40
64713;BME280;51140;45.340;5.980;2023-05-23T01:29:16;98112.94;;;16.09;74.06
64713;BME280;51140;45.340;5.980;2023-05-23T01:31:45;98112.44;;;16.07;73.41
64713;BME280;51140;45.340;5.980;2023-05-23T01:34:12;98106.28;;;16.06;73.25
64713;BME280;51140;45.340;5.980;2023-05-23T01:36:42;98117.72;;;15.98;74.45
64713;BME280;51140;45.340;5.980;2023-05-23T01:39:07;98110.78;;;15.83;75.45
64713;BME280;51140;45.340;5.980;2023-05-23T01:41:33;98113.75;;;15.82;76.07
64713;BME280;51140;45.340;5.980;2023-05-23T01:43:58;98114.34;;;15.79;75.55
64713;BME280;51140;45.340;5.980;2023-05-23T01:46:26;98118.63;;;15.66;75.06
64713;BME280;51140;45.340;5.980;2023-05-23T01:48:52;98113.66;;;15.60;75.68
64713;BME280;51140;45.340;5.980;2023-05-23T01:51:20;98114.66;;;15.64;76.18
64713;BME280;51140;45.340;5.980;2023-05-23T01:53:46;98108.19;;;15.92;74.20
64713;BME280;51140;45.340;5.980;2023-05-23T01:56:12;98106.69;;;15.99;73.69
64713;BME280;51140;45.340;5.980;2023-05-23T01:58:38;98100.16;;;15.92;74.14
64713;BME280;51140;45.340;5.980;2023-05-23T02:01:03;98102.94;;;16.00;73.94
64713;BME280;51140;45.340;5.980;2023-05-23T02:03:29;98100.94;;;15.92;74.15
64713;BME280;51140;45.340;5.980;2023-05-23T02:05:54;98093.78;;;16.01;74.05
64713;BME280;51140;45.340;5.980;2023-05-23T02:08:20;98099.25;;;15.96;74.46
64713;BME280;51140;45.340;5.980;2023-05-23T02:10:45;98099.97;;;15.75;75.52
64713;BME280;51140;45.340;5.980;2023-05-23T02:13:11;98100.84;;;15.84;75.56
64713;BME280;51140;45.340;5.980;2023-05-23T02:15:36;98108.41;;;15.68;76.03
64713;BME280;51140;45.340;5.980;2023-05-23T02:18:01;98107.22;;;15.61;75.91
64713;BME280;51140;45.340;5.980;2023-05-23T02:20:27;98116.59;;;15.58;76.63
64713;BME280;51140;45.340;5.980;2023-05-23T02:22:52;98113.06;;;15.49;77.46
64713;BME280;51140;45.340;5.980;2023-05-23T02:25:18;98114.03;;;15.67;77.38
64713;BME280;51140;45.340;5.980;2023-05-23T02:27:43;98108.19;;;15.51;77.42
64713;BME280;51140;45.340;5.980;2023-05-23T02:30:09;98119.50;;;15.62;77.38
64713;BME280;51140;45.340;5.980;2023-05-23T02:32:34;98113.25;;;15.66;77.61
64713;BME280;51140;45.340;5.980;2023-05-23T02:35:01;98118.41;;;15.63;78.83
64713;BME280;51140;45.340;5.980;2023-05-23T02:37:27;98112.78;;;15.78;76.95
64713;BME280;51140;45.340;5.980;2023-05-23T02:39:52;98109.69;;;15.71;77.64
64713;BME280;51140;45.340;5.980;2023-05-23T02:42:18;98112.38;;;15.71;76.91
64713;BME280;51140;45.340;5.980;2023-05-23T02:44:43;98115.63;;;15.68;77.85
64713;BME280;51140;45.340;5.980;2023-05-23T02:47:08;98112.94;;;15.68;77.34
64713;BME280;51140;45.340;5.980;2023-05-23T02:49:34;98120.28;;;15.76;77.51
64713;BME280;51140;45.340;5.980;2023-05-23T02:52:00;98125.03;;;15.79;76.68
64713;BME280;51140;45.340;5.980;2023-05-23T02:54:25;98119.75;;;16.01;76.69
64713;BME280;51140;45.340;5.980;2023-05-23T02:56:51;98124.16;;;15.97;75.88
64713;BME280;51140;45.340;5.980;2023-05-23T02:59:18;98128.44;;;15.98;76.74
64713;BME280;51140;45.340;5.980;2023-05-23T03:01:44;98120.59;;;15.88;76.57
64713;BME280;51140;45.340;5.980;2023-05-23T03:04:09;98127.81;;;15.74;77.11
64713;BME280;51140;45.340;5.980;2023-05-23T03:06:35;98135.84;;;15.60;78.03
64713;BME280;51140;45.340;5.980;2023-05-23T03:09:01;98130.81;;;15.72;76.83
64713;BME280;51140;45.340;5.980;2023-05-23T03:11:26;98133.47;;;15.99;76.29
64713;BME280;51140;45.340;5.980;2023-05-23T03:13:54;98131.69;;;16.09;75.38
64713;BME280;51140;45.340;5.980;2023-05-23T03:16:19;98126.63;;;15.93;76.07
64713;BME280;51140;45.340;5.980;2023-05-23T03:18:45;98129.69;;;15.87;76.33
64713;BME280;51140;45.340;5.980;2023-05-23T03:21:11;98118.09;;;15.91;76.67
64713;BME280;51140;45.340;5.980;2023-05-23T03:23:36;98128.41;;;15.84;77.45
64713;BME280;51140;45.340;5.980;2023-05-23T03:26:02;98124.06;;;15.88;77.48
64713;BME280;51140;45.340;5.980;2023-05-23T03:28:29;98129.81;;;15.82;78.00
64713;BME280;51140;45.340;5.980;2023-05-23T03:30:55;98127.81;;;15.87;77.02
64713;BME280;51140;45.340;5.980;2023-05-23T03:33:20;98130.69;;;15.91;76.66
64713;BME280;51140;45.340;5.980;2023-05-23T03:35:46;98126.63;;;15.80;77.84
64713;BME280;51140;45.340;5.980;2023-05-23T03:38:11;98122.47;;;15.87;77.54
64713;BME280;51140;45.340;5.980;2023-05-23T03:40:36;98119.59;;;15.84;78.03
64713;BME280;51140;45.340;5.980;2023-05-23T03:43:03;98121.78;;;15.82;77.74
64713;BME280;51140;45.340;5.980;2023-05-23T03:45:30;98125.16;;;15.74;78.32
64713;BME280;51140;45.340;5.980;2023-05-23T03:47:55;98126.03;;;15.96;77.43
64713;BME280;51140;45.340;5.980;2023-05-23T03:50:20;98117.00;;;16.06;75.36
64713;BME280;51140;45.340;5.980;2023-05-23T03:52:46;98124.25;;;15.92;76.65
64713;BME280;51140;45.340;5.980;2023-05-23T03:55:11;98122.78;;;15.86;76.36
64713;BME280;51140;45.340;5.980;2023-05-23T03:57:36;98122.56;;;15.96;76.41
64713;BME280;51140;45.340;5.980;2023-05-23T04:00:03;98119.69;;;16.06;76.22
64713;BME280;51140;45.340;5.980;2023-05-23T04:02:30;98119.78;;;15.87;76.49
64713;BME280;51140;45.340;5.980;2023-05-23T04:04:56;98116.69;;;16.08;76.24
64713;BME280;51140;45.340;5.980;2023-05-23T04:07:22;98108.78;;;15.89;76.57
64713;BME280;51140;45.340;5.980;2023-05-23T04:09:50;98119.22;;;15.77;77.42
64713;BME280;51140;45.340;5.980;2023-05-23T04:12:16;98119.78;;;15.87;77.15
64713;BME280;51140;45.340;5.980;2023-05-23T04:14:41;98111.38;;;15.94;77.07
64713;BME280;51140;45.340;5.980;2023-05-23T04:17:06;98109.69;;;15.98;76.41
64713;BME280;51140;45.340;5.980;2023-05-23T04:19:33;98112.81;;;16.14;76.32
64713;BME280;51140;45.340;5.980;2023-05-23T04:21:59;98115.66;;;16.31;77.20
64713;BME280;51140;45.340;5.980;2023-05-23T04:24:24;98116.72;;;16.43;76.64
64713;BME280;51140;45.340;5.980;2023-05-23T04:26:50;98112.13;;;16.44;76.62
64713;BME280;51140;45.340;5.980;2023-05-23T04:29:15;98115.22;;;16.15;77.89
64713;BME280;51140;45.340;5.980;2023-05-23T04:31:41;98120.78;;;15.91;77.16
64713;BME280;51140;45.340;5.980;2023-05-23T04:34:09;98116.63;;;15.85;78.05
64713;BME280;51140;45.340;5.980;2023-05-23T04:36:35;98120.75;;;16.05;77.02
64713;BME280;51140;45.340;5.980;2023-05-23T04:39:03;98125.72;;;15.84;77.28
64713;BME280;51140;45.340;5.980;2023-05-23T04:41:29;98129.91;;;15.77;77.97
64713;BME280;51140;45.340;5.980;2023-05-23T04:43:55;98131.28;;;16.01;77.82
64713;BME280;51140;45.340;5.980;2023-05-23T04:46:22;98129.72;;;16.36;76.54
64713;BME280;51140;45.340;5.980;2023-05-23T04:48:54;98130.53;;;16.37;77.07
64713;BME280;51140;45.340;5.980;2023-05-23T04:51:20;98135.28;;;16.53;75.54
64713;BME280;51140;45.340;5.980;2023-05-23T04:53:47;98126.50;;;16.62;74.83
64713;BME280;51140;45.340;5.980;2023-05-23T04:56:14;98127.31;;;16.84;74.82
64713;BME280;51140;45.340;5.980;2023-05-23T04:58:39;98126.41;;;17.11;75.27
64713;BME280;51140;45.340;5.980;2023-05-23T05:01:06;98121.53;;;16.91;75.24
64713;BME280;51140;45.340;5.980;2023-05-23T05:03:33;98124.94;;;16.83;76.07
64713;BME280;51140;45.340;5.980;2023-05-23T05:05:59;98128.38;;;16.75;75.80
64713;BME280;51140;45.340;5.980;2023-05-23T05:08:25;98128.34;;;16.97;73.96
64713;BME280;51140;45.340;5.980;2023-05-23T05:10:51;98127.44;;;17.01;74.20
64713;BME280;51140;45.340;5.980;2023-05-23T05:13:16;98127.75;;;17.00;73.41
64713;BME280;51140;45.340;5.980;2023-05-23T05:15:42;98125.31;;;16.90;73.01
64713;BME280;51140;45.340;5.980;2023-05-23T05:18:07;98129.41;;;17.18;72.83
64713;BME280;51140;45.340;5.980;2023-05-23T05:20:33;98128.53;;;17.23;74.20
64713;BME280;51140;45.340;5.980;2023-05-23T05:22:58;98123.34;;;17.26;75.31
64713;BME280;51140;45.340;5.980;2023-05-23T05:25:23;98125.56;;;17.33;74.34
64713;BME280;51140;45.340;5.980;2023-05-23T05:27:49;98123.09;;;17.45;74.26
64713;BME280;51140;45.340;5.980;2023-05-23T05:30:15;98119.88;;;17.56;73.49
64713;BME280;51140;45.340;5.980;2023-05-23T05:32:40;98113.28;;;17.62;73.76
64713;BME280;51140;45.340;5.980;2023-05-23T05:35:06;98109.97;;;17.65;73.64
64713;BME280;51140;45.340;5.980;2023-05-23T05:37:32;98112.66;;;17.65;72.61
64713;BME280;51140;45.340;5.980;2023-05-23T05:39:58;98117.66;;;17.58;73.50
64713;BME280;51140;45.340;5.980;2023-05-23T05:42:27;98130.94;;;17.55;74.78
64713;BME280;51140;45.340;5.980;2023-05-23T05:44:52;98113.28;;;17.62;74.29
64713;BME280;51140;45.340;5.980;2023-05-23T05:47:17;98116.84;;;17.89;73.38
64713;BME280;51140;45.340;5.980;2023-05-23T05:49:43;98121.88;;;17.90;72.65
64713;BME280;51140;45.340;5.980;2023-05-23T05:52:08;98111.97;;;18.08;70.93
64713;BME280;51140;45.340;5.980;2023-05-23T05:54:34;98118.16;;;18.17;70.70
64713;BME280;51140;45.340;5.980;2023-05-23T05:57:00;98121.31;;;17.62;72.33
64713;BME280;51140;45.340;5.980;2023-05-23T05:59:25;98122.91;;;17.63;72.19
64713;BME280;51140;45.340;5.980;2023-05-23T06:01:51;98127.06;;;17.47;73.28
64713;BME280;51140;45.340;5.980;2023-05-23T06:04:17;98129.59;;;17.75;74.24
64713;BME280;51140;45.340;5.980;2023-05-23T06:06:43;98130.28;;;17.89;72.57
64713;BME280;51140;45.340;5.980;2023-05-23T06:09:08;98126.34;;;17.95;72.55
64713;BME280;51140;45.340;5.980;2023-05-23T06:11:35;98127.31;;;18.07;72.23
64713;BME280;51140;45.340;5.980;2023-05-23T06:14:03;98117.03;;;18.09;72.41
64713;BME280;51140;45.340;5.980;2023-05-23T06:16:28;98118.69;;;17.80;72.03
64713;BME280;51140;45.340;5.980;2023-05-23T06:18:54;98126.47;;;17.90;72.29
64713;BME280;51140;45.340;5.980;2023-05-23T06:21:19;98132.50;;;18.04;71.25
64713;BME280;51140;45.340;5.980;2023-05-23T06:23:44;98131.16;;;17.76;71.40
64713;BME280;51140;45.340;5.980;2023-05-23T06:26:10;98126.41;;;17.72;71.54
64713;BME280;51140;45.340;5.980;2023-05-23T06:28:37;98126.00;;;17.96;70.56
64713;BME280;51140;45.340;5.980;2023-05-23T06:31:03;98131.13;;;17.67;70.67
64713;BME280;51140;45.340;5.980;2023-05-23T06:33:29;98135.16;;;17.95;70.72
64713;BME280;51140;45.340;5.980;2023-05-23T06:35:55;98134.41;;;18.03;71.70
64713;BME280;51140;45.340;5.980;2023-05-23T06:38:21;98134.22;;;17.91;71.72
64713;BME280;51140;45.340;5.980;2023-05-23T06:40:46;98139.72;;;17.78;72.28
64713;BME280;51140;45.340;5.980;2023-05-23T06:43:12;98146.06;;;17.90;71.47
64713;BME280;51140;45.340;5.980;2023-05-23T06:45:37;98130.84;;;18.34;70.10
64713;BME280;51140;45.340;5.980;2023-05-23T06:48:03;98131.94;;;18.33;69.17
64713;BME280;51140;45.340;5.980;2023-05-23T06:50:29;98131.50;;;18.56;68.90
64713;BME280;51140;45.340;5.980;2023-05-23T06:52:54;98138.63;;;18.69;68.06
64713;BME280;51140;45.340;5.980;2023-05-23T06:55:20;98130.41;;;18.57;68.28
64713;BME280;51140;45.340;5.980;2023-05-23T06:57:45;98129.63;;;18.65;66.81
64713;BME280;51140;45.340;5.980;2023-05-23T07:00:11;98135.16;;;18.77;67.59
64713;BME280;51140;45.340;5.980;2023-05-23T07:02:38;98127.88;;;18.61;68.47
64713;BME280;51140;45.340;5.980;2023-05-23T07:05:03;98125.63;;;18.37;69.01
64713;BME280;51140;45.340;5.980;2023-05-23T07:07:29;98128.19;;;18.51;69.70
64713;BME280;51140;45.340;5.980;2023-05-23T07:09:54;98127.88;;;18.61;67.94
64713;BME280;51140;45.340;5.980;2023-05-23T07:12:19;98130.25;;;18.79;68.37
64713;BME280;51140;45.340;5.980;2023-05-23T07:14:45;98129.00;;;18.68;67.64
64713;BME280;51140;45.340;5.980;2023-05-23T07:17:10;98124.41;;;18.60;67.92
64713;BME280;51140;45.340;5.980;2023-05-23T07:19:36;98126.91;;;19.00;65.19
64713;BME280;51140;45.340;5.980;2023-05-23T07:22:02;98120.59;;;21.78;57.70
64713;BME280;51140;45.340;5.980;2023-05-23T07:24:27;98115.25;;;24.16;49.39
64713;BME280;51140;45.340;5.980;2023-05-23T07:26:52;98109.16;;;23.13;51.77
64713;BME280;51140;45.340;5.980;2023-05-23T07:29:19;98107.31;;;23.76;50.86
64713;BME280;51140;45.340;5.980;2023-05-23T07:31:44;98105.47;;;25.03;46.94
64713;BME280;51140;45.340;5.980;2023-05-23T07:34:10;98106.81;;;26.04;44.60
64713;BME280;51140;45.340;5.980;2023-05-23T07:36:35;98104.81;;;26.24;43.31
64713;BME280;51140;45.340;5.980;2023-05-23T07:39:02;98103.41;;;26.93;42.23
64713;BME280;51140;45.340;5.980;2023-05-23T07:41:28;98105.03;;;25.89;45.04
64713;BME280;51140;45.340;5.980;2023-05-23T07:43:53;98099.16;;;26.36;45.95
64713;BME280;51140;45.340;5.980;2023-05-23T07:46:18;98100.19;;;28.08;40.20
64713;BME280;51140;45.340;5.980;2023-05-23T07:48:46;98103.81;;;27.72;41.30
64713;BME280;51140;45.340;5.980;2023-05-23T07:51:12;98101.41;;;28.14;39.89
64713;BME280;51140;45.340;5.980;2023-05-23T07:53:37;98096.56;;;28.55;38.45
64713;BME280;51140;45.340;5.980;2023-05-23T07:56:05;98085.28;;;28.60;36.78
64713;BME280;51140;45.340;5.980;2023-05-23T07:58:30;98091.03;;;27.39;41.85
64713;BME280;51140;45.340;5.980;2023-05-23T08:00:55;98089.56;;;27.45;39.80
64713;BME280;51140;45.340;5.980;2023-05-23T08:03:22;98086.78;;;28.47;38.79
64713;BME280;51140;45.340;5.980;2023-05-23T08:05:47;98085.75;;;28.73;38.33
64713;BME280;51140;45.340;5.980;2023-05-23T08:08:13;98083.13;;;29.05;37.71
64713;BME280;51140;45.340;5.980;2023-05-23T08:10:38;98084.31;;;28.24;38.31
64713;BME280;51140;45.340;5.980;2023-05-23T08:13:04;98086.88;;;27.52;40.41
64713;BME280;51140;45.340;5.980;2023-05-23T08:15:31;98082.16;;;27.93;40.40
64713;BME280;51140;45.340;5.980;2023-05-23T08:17:57;98073.34;;;28.17;38.74
64713;BME280;51140;45.340;5.980;2023-05-23T08:20:24;98076.41;;;28.09;39.74
64713;BME280;51140;45.340;5.980;2023-05-23T08:22:56;98067.53;;;29.16;37.78
64713;BME280;51140;45.340;5.980;2023-05-23T08:25:22;98076.97;;;29.68;35.59
64713;BME280;51140;45.340;5.980;2023-05-23T08:27:49;98073.00;;;29.16;36.75
64713;BME280;51140;45.340;5.980;2023-05-23T08:30:14;98080.13;;;29.87;35.82
64713;BME280;51140;45.340;5.980;2023-05-23T08:32:40;98079.31;;;29.41;37.39
64713;BME280;51140;45.340;5.980;2023-05-23T08:35:05;98078.91;;;29.88;35.51
64713;BME280;51140;45.340;5.980;2023-05-23T08:37:31;98076.16;;;29.46;35.80
64713;BME280;51140;45.340;5.980;2023-05-23T08:39:56;98073.97;;;28.62;36.47
64713;BME280;51140;45.340;5.980;2023-05-23T08:42:21;98067.28;;;28.49;38.63
64713;BME280;51140;45.340;5.980;2023-05-23T08:44:47;98063.97;;;28.90;37.17
64713;BME280;51140;45.340;5.980;2023-05-23T08:47:15;98069.44;;;28.15;39.33
64713;BME280;51140;45.340;5.980;2023-05-23T08:49:42;98068.81;;;26.97;41.98
64713;BME280;51140;45.340;5.980;2023-05-23T08:52:11;98070.16;;;27.13;39.82
64713;BME280;51140;45.340;5.980;2023-05-23T08:54:37;98067.94;;;27.70;42.34
64713;BME280;51140;45.340;5.980;2023-05-23T08:57:03;98071.44;;;26.56;43.77
64713;BME280;51140;45.340;5.980;2023-05-23T08:59:29;98060.25;;;26.09;43.30
64713;BME280;51140;45.340;5.980;2023-05-23T09:01:56;98066.81;;;25.33;45.46
64713;BME280;51140;45.340;5.980;2023-05-23T09:04:22;98066.34;;;25.99;44.64
64713;BME280;51140;45.340;5.980;2023-05-23T09:06:47;98052.72;;;26.85;42.33
64713;BME280;51140;45.340;5.980;2023-05-23T09:09:13;98051.06;;;26.77;44.36
64713;BME280;51140;45.340;5.980;2023-05-23T09:11:40;98053.91;;;26.57;42.85
64713;BME280;51140;45.340;5.980;2023-05-23T09:14:05;98057.53;;;26.09;43.93
64713;BME280;51140;45.340;5.980;2023-05-23T09:16:32;98046.53;;;26.25;44.98
64713;BME280;51140;45.340;5.980;2023-05-23T09:19:11;98057.97;;;26.11;44.35
64713;BME280;51140;45.340;5.980;2023-05-23T09:21:42;98049.34;;;25.79;45.83
64713;BME280;51140;45.340;5.980;2023-05-23T09:24:07;98051.88;;;26.47;45.84
64713;BME280;51140;45.340;5.980;2023-05-23T09:26:33;98054.53;;;25.88;45.56
64713;BME280;51140;45.340;5.980;2023-05-23T09:28:59;98049.75;;;25.81;48.94
64713;BME280;51140;45.340;5.980;2023-05-23T09:31:27;98047.72;;;25.29;45.08
64713;BME280;51140;45.340;5.980;2023-05-23T09:33:53;98054.09;;;25.86;44.59
64713;BME280;51140;45.340;5.980;2023-05-23T09:36:18;98040.00;;;25.77;43.54
64713;BME280;51140;45.340;5.980;2023-05-23T09:38:46;98044.78;;;25.60;45.44
64713;BME280;51140;45.340;5.980;2023-05-23T09:41:12;98050.63;;;25.85;42.86
64713;BME280;51140;45.340;5.980;2023-05-23T09:43:39;98045.88;;;25.11;48.19
64713;BME280;51140;45.340;5.980;2023-05-23T09:46:11;98043.09;;;25.52;46.15
64713;BME280;51140;45.340;5.980;2023-05-23T09:48:37;98043.47;;;25.77;47.00
64713;BME280;51140;45.340;5.980;2023-05-23T09:51:04;98040.50;;;25.86;48.58
64713;BME280;51140;45.340;5.980;2023-05-23T09:53:30;98046.97;;;26.04;52.58
64713;BME280;51140;45.340;5.980;2023-05-23T09:55:57;98034.38;;;26.19;48.96
64713;BME280;51140;45.340;5.980;2023-05-23T09:58:26;98034.84;;;26.24;49.20
64713;BME280;51140;45.340;5.980;2023-05-23T10:00:52;98037.38;;;25.84;47.16
64713;BME280;51140;45.340;5.980;2023-05-23T10:03:26;98030.56;;;25.97;43.25
64713;BME280;51140;45.340;5.980;2023-05-23T10:05:56;98030.88;;;26.18;45.21
64713;BME280;51140;45.340;5.980;2023-05-23T10:08:31;98030.88;;;26.18;47.55
64713;BME280;51140;45.340;5.980;2023-05-23T10:13:46;98016.88;;;26.49;50.55
64713;BME280;51140;45.340;5.980;2023-05-23T10:19:06;98015.91;;;26.64;48.68
64713;BME280;51140;45.340;5.980;2023-05-23T10:21:39;98013.03;;;26.50;49.69
64713;BME280;51140;45.340;5.980;2023-05-23T10:24:08;98012.28;;;26.53;44.54
64713;BME280;51140;45.340;5.980;2023-05-23T10:26:35;98012.13;;;26.76;44.10
64713;BME280;51140;45.340;5.980;2023-05-23T10:29:01;98006.63;;;26.36;49.97
64713;BME280;51140;45.340;5.980;2023-05-23T10:31:28;98009.13;;;26.18;46.18
64713;BME280;51140;45.340;5.980;2023-05-23T10:33:59;98014.72;;;25.76;48.51
64713;BME280;51140;45.340;5.980;2023-05-23T10:36:33;98006.78;;;25.90;47.08
64713;BME280;51140;45.340;5.980;2023-05-23T10:40:00;98001.66;;;25.85;48.36
64713;BME280;51140;45.340;5.980;2023-05-23T10:42:03;98005.59;;;25.91;51.10
64713;BME280;51140;45.340;5.980;2023-05-23T10:44:31;97999.16;;;26.29;50.03
64713;BME280;51140;45.340;5.980;2023-05-23T10:47:02;97998.91;;;26.78;46.72
64713;BME280;51140;45.340;5.980;2023-05-23T10:49:47;97992.44;;;26.53;47.54
64713;BME280;51140;45.340;5.980;2023-05-23T10:52:16;97990.06;;;26.18;49.00
64713;BME280;51140;45.340;5.980;2023-05-23T10:54:43;97985.66;;;26.10;47.73
64713;BME280;51140;45.340;5.980;2023-05-23T10:57:11;97982.13;;;26.36;49.75
64713;BME280;51140;45.340;5.980;2023-05-23T10:59:40;97983.69;;;26.07;50.08
64713;BME280;51140;45.340;5.980;2023-05-23T11:02:11;97977.59;;;26.47;49.86
64713;BME280;51140;45.340;5.980;2023-05-23T11:04:37;97977.38;;;26.62;48.65
64713;BME280;51140;45.340;5.980;2023-05-23T11:07:03;97974.22;;;26.57;45.29
64713;BME280;51140;45.340;5.980;2023-05-23T11:09:28;97971.28;;;26.76;48.61
64713;BME280;51140;45.340;5.980;2023-05-23T11:12:03;97962.84;;;26.48;47.64
64713;BME280;51140;45.340;5.980;2023-05-23T11:16:58;97965.75;;;26.65;51.71
64713;BME280;51140;45.340;5.980;2023-05-23T11:19:26;97967.81;;;26.42;48.52
64713;BME280;51140;45.340;5.980;2023-05-23T11:24:48;97962.97;;;26.29;51.37
64713;BME280;51140;45.340;5.980;2023-05-23T11:27:15;97959.78;;;25.64;50.07
64713;BME280;51140;45.340;5.980;2023-05-23T11:29:40;97968.28;;;26.51;52.54
64713;BME280;51140;45.340;5.980;2023-05-23T11:32:12;97961.88;;;26.33;49.81
64713;BME280;51140;45.340;5.980;2023-05-23T11:34:38;97958.91;;;26.45;50.10
64713;BME280;51140;45.340;5.980;2023-05-23T11:37:04;97951.00;;;26.33;50.77
64713;BME280;51140;45.340;5.980;2023-05-23T11:39:30;97952.09;;;26.29;50.17
64713;BME280;51140;45.340;5.980;2023-05-23T11:41:59;97954.69;;;26.51;46.17
64713;BME280;51140;45.340;5.980;2023-05-23T11:44:25;97945.88;;;25.98;50.22
64713;BME280;51140;45.340;5.980;2023-05-23T11:47:00;97953.13;;;25.12;48.04
64713;BME280;51140;45.340;5.980;2023-05-23T11:49:28;97946.88;;;25.34;48.32
64713;BME280;51140;45.340;5.980;2023-05-23T11:51:53;97942.28;;;25.61;49.55
64713;BME280;51140;45.340;5.980;2023-05-23T11:54:22;97941.69;;;26.71;50.79
64713;BME280;51140;45.340;5.980;2023-05-23T11:56:48;97936.09;;;26.60;46.44
64713;BME280;51140;45.340;5.980;2023-05-23T11:59:14;97935.38;;;26.63;51.35
64713;BME280;51140;45.340;5.980;2023-05-23T12:01:39;97935.66;;;26.18;48.86
64713;BME280;51140;45.340;5.980;2023-05-23T12:04:09;97933.47;;;26.01;51.61
64713;BME280;51140;45.340;5.980;2023-05-23T12:06:38;97925.25;;;25.97;53.04
64713;BME280;51140;45.340;5.980;2023-05-23T12:09:04;97925.91;;;26.17;50.63
64713;BME280;51140;45.340;5.980;2023-05-23T12:11:31;97925.56;;;26.55;46.03
64713;BME280;51140;45.340;5.980;2023-05-23T12:13:56;97919.81;;;26.27;49.61
64713;BME280;51140;45.340;5.980;2023-05-23T12:16:22;97921.91;;;26.07;48.69
64713;BME280;51140;45.340;5.980;2023-05-23T12:18:47;97909.34;;;26.29;51.45
64713;BME280;51140;45.340;5.980;2023-05-23T12:21:13;97908.22;;;26.70;47.06
64713;BME280;51140;45.340;5.980;2023-05-23T12:23:38;97896.13;;;27.12;47.27
64713;BME280;51140;45.340;5.980;2023-05-23T12:26:05;97899.66;;;27.16;47.33
64713;BME280;51140;45.340;5.980;2023-05-23T12:31:22;97901.91;;;26.63;47.52
64713;BME280;51140;45.340;5.980;2023-05-23T12:33:47;97900.22;;;26.51;48.33
64713;BME280;51140;45.340;5.980;2023-05-23T12:36:20;97898.94;;;26.38;48.04
64713;BME280;51140;45.340;5.980;2023-05-23T12:38:46;97890.47;;;26.47;50.80
64713;BME280;51140;45.340;5.980;2023-05-23T12:41:15;97896.75;;;26.54;49.28
64713;BME280;51140;45.340;5.980;2023-05-23T12:43:49;97894.84;;;26.18;48.09
64713;BME280;51140;45.340;5.980;2023-05-23T12:46:15;97893.25;;;25.54;50.51
64713;BME280;51140;45.340;5.980;2023-05-23T12:48:41;97891.25;;;25.81;56.35
64713;BME280;51140;45.340;5.980;2023-05-23T12:51:06;97890.41;;;26.06;50.55
64713;BME280;51140;45.340;5.980;2023-05-23T12:53:31;97885.41;;;26.12;48.59
64713;BME280;51140;45.340;5.980;2023-05-23T12:55:57;97884.91;;;25.70;50.35
64713;BME280;51140;45.340;5.980;2023-05-23T12:58:22;97881.53;;;25.50;49.89
64713;BME280;51140;45.340;5.980;2023-05-23T13:00:48;97879.47;;;25.70;48.43
64713;BME280;51140;45.340;5.980;2023-05-23T13:03:13;97870.56;;;25.73;47.61
64713;BME280;51140;45.340;5.980;2023-05-23T13:05:39;97881.16;;;26.11;47.55
64713;BME280;51140;45.340;5.980;2023-05-23T13:08:04;97869.34;;;25.67;46.98
64713;BME280;51140;45.340;5.980;2023-05-23T13:10:30;97872.47;;;26.35;48.75
64713;BME280;51140;45.340;5.980;2023-05-23T13:12:56;97870.09;;;26.30;51.06
64713;BME280;51140;45.340;5.980;2023-05-23T13:15:21;97867.41;;;26.00;45.73
64713;BME280;51140;45.340;5.980;2023-05-23T13:17:47;97873.97;;;26.29;51.21